createdAt,value
2017-12-10T00:00:10.112Z,98.2
2017-12-10T00:00:36.220Z,98.01
2017-12-10T00:01:02.326Z,98.01
2017-12-10T00:01:28.448Z,97.73
2017-12-10T00:01:54.555Z,97.73
2017-12-10T00:02:20.662Z,98.2
2017-12-10T00:02:46.769Z,98.2
2017-12-10T00:03:12.877Z,98.3
2017-12-10T00:03:38.986Z,98.11
2017-12-10T00:04:05.090Z,97.92
2017-12-10T00:04:31.194Z,98.2
2017-12-10T00:04:57.303Z,98.2
2017-12-10T00:05:23.409Z,98.11
2017-12-10T00:05:49.534Z,98.3
2017-12-10T00:06:15.644Z,98.2
2017-12-10T00:06:41.751Z,98.2
2017-12-10T00:07:07.857Z,98.3
2017-12-10T00:07:34.019Z,98.11
2017-12-10T00:08:00.070Z,97.92
2017-12-10T00:08:26.177Z,98.86
2017-12-10T00:08:52.283Z,99.05
2017-12-10T00:09:18.390Z,98.77
2017-12-10T00:09:44.496Z,98.49
2017-12-10T00:10:10.604Z,98.68
2017-12-10T00:10:36.712Z,98.86
2017-12-10T00:11:02.819Z,98.39
2017-12-10T00:11:28.942Z,98.68
2017-12-10T00:11:55.050Z,98.11
2017-12-10T00:12:21.156Z,98.86
2017-12-10T00:12:47.263Z,98.2
2017-12-10T00:13:13.369Z,98.68
2017-12-10T00:13:39.497Z,98.86
2017-12-10T00:14:05.604Z,99.05
2017-12-10T00:14:31.710Z,98.77
2017-12-10T00:14:57.818Z,98.96
2017-12-10T00:15:23.927Z,98.68
2017-12-10T00:15:50.052Z,98.68
2017-12-10T00:16:16.157Z,98.77
2017-12-10T00:16:42.264Z,99.05
2017-12-10T00:17:08.371Z,98.86
2017-12-10T00:17:34.479Z,99.05
2017-12-10T00:18:00.604Z,98.86
2017-12-10T00:18:26.728Z,98.68
2017-12-10T00:18:52.835Z,98.39
2017-12-10T00:19:18.941Z,98.68
2017-12-10T00:19:45.048Z,98.63
2017-12-10T00:20:11.153Z,98.82
2017-12-10T00:20:37.261Z,99.05
2017-12-10T00:21:03.368Z,98.49
2017-12-10T00:21:29.477Z,98.86
2017-12-10T00:21:55.586Z,98.58
2017-12-10T00:22:21.692Z,98.68
2017-12-10T00:22:47.800Z,98.39
2017-12-10T00:23:13.925Z,98.68
2017-12-10T00:23:40.030Z,98.3
2017-12-10T00:24:06.143Z,98.68
2017-12-10T00:24:32.244Z,98.77
2017-12-10T00:24:58.349Z,98.77
2017-12-10T00:25:24.472Z,98.77
2017-12-10T00:25:50.578Z,98.96
2017-12-10T00:26:16.684Z,98.77
2017-12-10T00:26:42.792Z,98.39
2017-12-10T00:27:08.897Z,98.68
2017-12-10T00:27:35.005Z,98.68
2017-12-10T00:28:01.112Z,98.68
2017-12-10T00:28:27.236Z,98.49
2017-12-10T00:28:53.343Z,98.86
2017-12-10T00:29:19.452Z,98.2
2017-12-10T00:29:45.561Z,97.92
2017-12-10T00:30:11.668Z,98.01
2017-12-10T00:30:37.834Z,97.73
2017-12-10T00:31:03.880Z,98.2
2017-12-10T00:31:29.987Z,97.82
2017-12-10T00:31:56.094Z,98.11
2017-12-10T00:32:22.201Z,98.77
2017-12-10T00:32:48.308Z,98.77
2017-12-10T00:33:14.414Z,98.39
2017-12-10T00:33:40.526Z,98.68
2017-12-10T00:34:06.666Z,98.96
2017-12-10T00:34:32.773Z,98.86
2017-12-10T00:34:58.880Z,98.49
2017-12-10T00:35:24.992Z,99.24
2017-12-10T00:35:51.100Z,99.24
2017-12-10T00:36:17.200Z,98.77
2017-12-10T00:36:43.306Z,99.15
2017-12-10T00:37:09.417Z,99.52
2017-12-10T00:37:35.522Z,98.77
2017-12-10T00:38:01.628Z,99.15
2017-12-10T00:38:27.738Z,98.68
2017-12-10T00:38:53.847Z,98.77
2017-12-10T00:39:19.955Z,98.49
2017-12-10T00:39:46.059Z,98.2
2017-12-10T00:40:12.167Z,98.39
2017-12-10T00:40:38.272Z,98.49
2017-12-10T00:41:04.389Z,98.96
2017-12-10T00:41:30.505Z,98.39
2017-12-10T00:41:56.611Z,98.68
2017-12-10T00:42:22.719Z,98.68
2017-12-10T00:42:48.842Z,98.68
2017-12-10T00:43:14.950Z,98.68
2017-12-10T00:43:41.057Z,99.05
2017-12-10T00:44:07.166Z,98.49
2017-12-10T00:44:33.272Z,98.86
2017-12-10T00:44:59.378Z,98.63
2017-12-10T00:45:25.486Z,98.72
2017-12-10T00:45:51.593Z,98.68
2017-12-10T00:46:17.701Z,98.96
2017-12-10T00:46:43.807Z,99.05
2017-12-10T00:47:09.918Z,98.82
2017-12-10T00:47:36.023Z,98.91
2017-12-10T00:48:02.128Z,98.44
2017-12-10T00:48:28.235Z,98.96
2017-12-10T00:48:54.342Z,99.19
2017-12-10T00:49:20.448Z,98.58
2017-12-10T00:49:46.556Z,98.34
2017-12-10T00:50:12.660Z,99.19
2017-12-10T00:50:38.767Z,99.48
2017-12-10T00:51:04.873Z,99.71
2017-12-10T00:51:31.018Z,99.57
2017-12-10T00:51:57.108Z,99.48
2017-12-10T00:52:23.214Z,99.57
2017-12-10T00:52:49.323Z,99.66
2017-12-10T00:53:15.427Z,99.71
2017-12-10T00:53:41.533Z,99.99
2017-12-10T00:54:07.641Z,99.81
2017-12-10T00:54:33.747Z,99.76
2017-12-10T00:54:59.852Z,99.99
2017-12-10T00:55:25.962Z,99.99
2017-12-10T00:55:52.068Z,99.99
2017-12-10T00:56:18.176Z,99.66
2017-12-10T00:56:44.283Z,99.99
2017-12-10T00:57:10.388Z,99.81
2017-12-10T00:57:36.489Z,99.81
2017-12-10T00:58:02.609Z,99.43
2017-12-10T00:58:28.717Z,99.52
2017-12-10T00:58:54.840Z,99.57
2017-12-10T00:59:20.948Z,99.81
2017-12-10T00:59:47.077Z,99.71
2017-12-10T01:00:13.183Z,99.57
2017-12-10T01:00:39.292Z,99.99
2017-12-10T01:01:05.398Z,99.71
2017-12-10T01:01:31.504Z,99.81
2017-12-10T01:01:57.611Z,99.52
2017-12-10T01:02:23.720Z,98.96
2017-12-10T01:02:49.827Z,99.33
2017-12-10T01:03:15.934Z,99.33
2017-12-10T01:03:42.040Z,99.33
2017-12-10T01:04:08.147Z,99.48
2017-12-10T01:04:34.254Z,99.19
2017-12-10T01:05:00.361Z,99.15
2017-12-10T01:05:26.469Z,98.49
2017-12-10T01:05:52.597Z,98.68
2017-12-10T01:06:18.722Z,99.05
2017-12-10T01:06:44.824Z,99.05
2017-12-10T01:07:10.939Z,99.05
2017-12-10T01:07:37.053Z,98.68
2017-12-10T01:08:03.173Z,98.68
2017-12-10T01:08:29.301Z,98.86
2017-12-10T01:08:55.439Z,98.96
2017-12-10T01:09:21.551Z,98.58
2017-12-10T01:09:47.664Z,98.68
2017-12-10T01:10:13.782Z,98.68
2017-12-10T01:10:39.890Z,98.39
2017-12-10T01:11:06.000Z,98.68
2017-12-10T01:11:32.105Z,97.82
2017-12-10T01:11:58.212Z,98.01
2017-12-10T01:12:24.319Z,98.49
2017-12-10T01:12:50.431Z,97.92
2017-12-10T01:13:16.568Z,98.01
2017-12-10T01:13:42.683Z,98.01
2017-12-10T01:14:08.795Z,98.15
2017-12-10T01:14:34.906Z,98.2
2017-12-10T01:15:01.038Z,98.06
2017-12-10T01:15:27.157Z,97.92
2017-12-10T01:15:53.270Z,98.06
2017-12-10T01:16:19.379Z,98.06
2017-12-10T01:16:45.496Z,98.06
2017-12-10T01:17:11.610Z,97.87
2017-12-10T01:17:37.716Z,98.44
2017-12-10T01:18:03.829Z,97.68
2017-12-10T01:18:29.976Z,98.86
2017-12-10T01:18:56.064Z,98.11
2017-12-10T01:19:22.200Z,98.01
2017-12-10T01:19:48.329Z,98.01
2017-12-10T01:20:14.443Z,98.01
2017-12-10T01:20:40.557Z,98.01
2017-12-10T01:21:06.672Z,97.63
2017-12-10T01:21:32.794Z,97.16
2017-12-10T01:21:58.903Z,97.54
2017-12-10T01:22:25.013Z,97.35
2017-12-10T01:22:51.130Z,97.35
2017-12-10T01:23:17.259Z,97.16
2017-12-10T01:23:43.355Z,97.35
2017-12-10T01:24:09.475Z,97.16
2017-12-10T01:24:35.642Z,97.54
2017-12-10T01:25:01.701Z,96.97
2017-12-10T01:25:27.813Z,97.35
2017-12-10T01:25:53.925Z,97.63
2017-12-10T01:26:20.041Z,96.31
2017-12-10T01:26:46.153Z,96.59
2017-12-10T01:27:12.273Z,96.69
2017-12-10T01:27:38.382Z,96.78
2017-12-10T01:28:04.522Z,96.78
2017-12-10T01:28:30.632Z,96.59
2017-12-10T01:28:56.751Z,96.78
2017-12-10T01:29:22.865Z,96.97
2017-12-10T01:29:48.976Z,96.97
2017-12-10T01:30:15.115Z,97.25
2017-12-10T01:30:41.225Z,96.97
2017-12-10T01:31:07.337Z,96.78
2017-12-10T01:31:33.455Z,96.78
2017-12-10T01:31:59.570Z,96.78
2017-12-10T01:32:25.702Z,96.45
2017-12-10T01:32:51.797Z,96.64
2017-12-10T01:33:17.910Z,96.88
2017-12-10T01:33:44.026Z,96.88
2017-12-10T01:34:10.136Z,96.88
2017-12-10T01:34:36.249Z,96.69
2017-12-10T01:35:02.365Z,96.78
2017-12-10T01:35:28.479Z,96.78
2017-12-10T01:35:54.595Z,96.59
2017-12-10T01:36:20.710Z,96.69
2017-12-10T01:36:46.824Z,96.59
2017-12-10T01:37:12.945Z,96.69
2017-12-10T01:37:39.065Z,96.69
2017-12-10T01:38:05.204Z,96.31
2017-12-10T01:38:31.318Z,96.21
2017-12-10T01:38:57.431Z,96.78
2017-12-10T01:39:23.541Z,96.02
2017-12-10T01:39:49.654Z,96.21
2017-12-10T01:40:15.774Z,95.93
2017-12-10T01:40:41.884Z,96.02
2017-12-10T01:41:08.003Z,96.31
2017-12-10T01:41:34.113Z,96.5
2017-12-10T01:42:00.233Z,96.21
2017-12-10T01:42:26.341Z,96.21
2017-12-10T01:42:52.450Z,96.12
2017-12-10T01:43:18.568Z,96.4
2017-12-10T01:43:44.679Z,95.55
2017-12-10T01:44:10.801Z,95.83
2017-12-10T01:44:36.910Z,95.64
2017-12-10T01:45:03.023Z,95.93
2017-12-10T01:45:29.140Z,96.02
2017-12-10T01:45:55.254Z,96.4
2017-12-10T01:46:21.367Z,96.21
2017-12-10T01:46:47.483Z,95.93
2017-12-10T01:47:13.597Z,96.02
2017-12-10T01:47:39.707Z,95.83
2017-12-10T01:48:05.824Z,95.55
2017-12-10T01:48:31.931Z,95.83
2017-12-10T01:48:58.047Z,95.64
2017-12-10T01:49:24.161Z,95.74
2017-12-10T01:49:50.268Z,96.02
2017-12-10T01:50:16.381Z,95.74
2017-12-10T01:50:42.498Z,95.97
2017-12-10T01:51:08.610Z,95.93
2017-12-10T01:51:34.744Z,95.64
2017-12-10T01:52:00.860Z,95.97
2017-12-10T01:52:26.971Z,96.02
2017-12-10T01:52:53.086Z,96.16
2017-12-10T01:53:19.201Z,96.02
2017-12-10T01:53:45.310Z,96.02
2017-12-10T01:54:11.425Z,96.12
2017-12-10T01:54:37.542Z,95.74
2017-12-10T01:55:03.854Z,95.21
2017-12-10T01:55:29.969Z,95.21
2017-12-10T01:55:56.090Z,95.21
2017-12-10T01:56:22.196Z,95.26
2017-12-10T01:56:48.315Z,95.4
2017-12-10T01:57:14.430Z,95.45
2017-12-10T01:57:40.544Z,95.74
2017-12-10T01:58:06.656Z,95.45
2017-12-10T01:58:32.774Z,95.55
2017-12-10T01:58:58.889Z,95.36
2017-12-10T01:59:24.998Z,95.45
2017-12-10T01:59:51.118Z,95.45
2017-12-10T02:00:17.252Z,95.55
2017-12-10T02:00:43.368Z,95.64
2017-12-10T02:01:09.487Z,95.26
2017-12-10T02:01:36.041Z,95.36
2017-12-10T02:02:02.122Z,95.45
2017-12-10T02:02:28.257Z,95.07
2017-12-10T02:02:54.370Z,94.98
2017-12-10T02:03:20.479Z,94.89
2017-12-10T02:03:46.594Z,94.89
2017-12-10T02:04:12.727Z,94.89
2017-12-10T02:04:38.844Z,94.79
2017-12-10T02:05:04.955Z,94.79
2017-12-10T02:05:31.090Z,94.6
2017-12-10T02:05:57.206Z,94.79
2017-12-10T02:06:23.316Z,94.89
2017-12-10T02:06:49.428Z,94.51
2017-12-10T02:07:15.540Z,94.79
2017-12-10T02:07:41.659Z,94.32
2017-12-10T02:08:07.774Z,94.7
2017-12-10T02:08:33.890Z,94.79
2017-12-10T02:09:00.006Z,94.32
2017-12-10T02:09:26.114Z,94.51
2017-12-10T02:09:52.231Z,94.79
2017-12-10T02:10:18.341Z,94.79
2017-12-10T02:10:44.455Z,94.6
2017-12-10T02:11:10.567Z,94.7
2017-12-10T02:11:36.679Z,94.79
2017-12-10T02:12:02.800Z,94.6
2017-12-10T02:12:28.941Z,94.7
2017-12-10T02:12:55.058Z,94.51
2017-12-10T02:13:21.193Z,94.6
2017-12-10T02:13:47.306Z,94.13
2017-12-10T02:14:13.414Z,94.6
2017-12-10T02:14:39.533Z,94.42
2017-12-10T02:15:05.646Z,95.36
2017-12-10T02:15:31.756Z,94.98
2017-12-10T02:15:57.869Z,95.26
2017-12-10T02:16:24.006Z,95.26
2017-12-10T02:16:50.114Z,95.45
2017-12-10T02:17:16.221Z,95.07
2017-12-10T02:17:42.332Z,94.51
2017-12-10T02:18:08.448Z,93.75
2017-12-10T02:18:34.560Z,93.75
2017-12-10T02:19:00.674Z,93.65
2017-12-10T02:19:26.790Z,93.56
2017-12-10T02:19:52.913Z,93.56
2017-12-10T02:20:19.041Z,94.32
2017-12-10T02:20:45.153Z,93.84
2017-12-10T02:21:11.272Z,92.9
2017-12-10T02:21:37.387Z,93.08
2017-12-10T02:22:03.518Z,93.75
2017-12-10T02:22:29.632Z,94.18
2017-12-10T02:22:55.750Z,93.51
2017-12-10T02:23:21.867Z,94.08
2017-12-10T02:23:47.977Z,92.94
2017-12-10T02:24:14.095Z,92.85
2017-12-10T02:24:40.204Z,92.76
2017-12-10T02:25:06.323Z,92.94
2017-12-10T02:25:32.467Z,94.08
2017-12-10T02:25:58.576Z,94.08
2017-12-10T02:26:24.739Z,92.85
2017-12-10T02:26:50.807Z,92.57
2017-12-10T02:27:16.918Z,92.57
2017-12-10T02:27:43.032Z,92.66
2017-12-10T02:28:09.147Z,92
2017-12-10T02:28:35.260Z,92.19
2017-12-10T02:29:01.378Z,92.19
2017-12-10T02:29:27.500Z,92.38
2017-12-10T02:29:53.615Z,92.57
2017-12-10T02:30:19.736Z,92.76
2017-12-10T02:30:45.849Z,92.19
2017-12-10T02:31:11.960Z,92
2017-12-10T02:31:38.092Z,92.38
2017-12-10T02:32:04.203Z,92.19
2017-12-10T02:32:30.320Z,92.19
2017-12-10T02:32:56.461Z,92.57
2017-12-10T02:33:22.575Z,92
2017-12-10T02:33:48.699Z,91.81
2017-12-10T02:34:14.838Z,91.62
2017-12-10T02:34:40.967Z,91.57
2017-12-10T02:35:07.092Z,91.81
2017-12-10T02:35:33.204Z,91.81
2017-12-10T02:35:59.317Z,92
2017-12-10T02:36:25.484Z,91.9
2017-12-10T02:36:51.653Z,92.28
2017-12-10T02:37:17.726Z,92.76
2017-12-10T02:37:43.839Z,92.47
2017-12-10T02:38:09.949Z,91.9
2017-12-10T02:38:36.095Z,92.19
2017-12-10T02:39:02.244Z,92.38
2017-12-10T02:39:28.390Z,91.9
2017-12-10T02:39:54.553Z,92
2017-12-10T02:40:20.680Z,92.28
2017-12-10T02:40:46.824Z,91.81
2017-12-10T02:41:12.940Z,91.05
2017-12-10T02:41:39.078Z,91.24
2017-12-10T02:42:05.242Z,91.14
2017-12-10T02:42:31.378Z,91.81
2017-12-10T02:42:57.502Z,91.52
2017-12-10T02:43:23.644Z,91.33
2017-12-10T02:43:49.762Z,91.14
2017-12-10T02:44:15.905Z,91.43
2017-12-10T02:44:42.042Z,91.43
2017-12-10T02:45:08.180Z,91.43
2017-12-10T02:45:34.351Z,91.24
2017-12-10T02:46:00.473Z,91.62
2017-12-10T02:46:26.589Z,91.9
2017-12-10T02:46:52.700Z,91.14
2017-12-10T02:47:18.822Z,91.05
2017-12-10T02:47:44.936Z,91.05
2017-12-10T02:48:11.607Z,91.62
2017-12-10T02:48:37.762Z,91.43
2017-12-10T02:49:03.894Z,91.43
2017-12-10T02:49:30.011Z,91.33
2017-12-10T02:49:56.122Z,91.05
2017-12-10T02:50:22.239Z,90.77
2017-12-10T02:50:48.351Z,90.86
2017-12-10T02:51:14.479Z,91.62
2017-12-10T02:51:40.588Z,91.43
2017-12-10T02:52:06.886Z,91.62
2017-12-10T02:52:33.092Z,91.33
2017-12-10T02:52:59.415Z,91
2017-12-10T02:53:25.621Z,91.43
2017-12-10T02:53:51.774Z,91.62
2017-12-10T02:54:17.920Z,91.24
2017-12-10T02:54:44.062Z,91.24
2017-12-10T02:55:10.265Z,91.33
2017-12-10T02:55:36.375Z,91.52
2017-12-10T02:56:02.559Z,90.95
2017-12-10T02:56:28.700Z,90.77
2017-12-10T02:56:54.821Z,90.67
2017-12-10T02:57:20.932Z,90.86
2017-12-10T02:57:47.141Z,90.39
2017-12-10T02:58:13.466Z,90.67
2017-12-10T02:58:39.646Z,90.29
2017-12-10T02:59:05.761Z,90.86
2017-12-10T02:59:31.869Z,90.86
2017-12-10T02:59:57.985Z,91.52
2017-12-10T03:00:24.104Z,91.33
2017-12-10T03:00:50.219Z,91.24
2017-12-10T03:01:16.322Z,91.43
2017-12-10T03:01:42.484Z,91.24
2017-12-10T03:02:08.595Z,91.62
2017-12-10T03:02:34.707Z,90.95
2017-12-10T03:03:00.860Z,91.24
2017-12-10T03:03:27.004Z,91.52
2017-12-10T03:03:53.135Z,91.33
2017-12-10T03:04:19.253Z,91.19
2017-12-10T03:04:45.366Z,91.52
2017-12-10T03:05:11.476Z,91.95
2017-12-10T03:05:37.633Z,91.76
2017-12-10T03:06:03.747Z,92.09
2017-12-10T03:06:29.862Z,92
2017-12-10T03:06:55.976Z,91.9
2017-12-10T03:07:22.114Z,92.09
2017-12-10T03:07:48.282Z,92.09
2017-12-10T03:08:14.455Z,92.28
2017-12-10T03:08:40.588Z,92.52
2017-12-10T03:09:06.698Z,92.38
2017-12-10T03:09:32.811Z,92.38
2017-12-10T03:09:58.928Z,92.57
2017-12-10T03:10:25.049Z,92.66
2017-12-10T03:10:51.177Z,92.28
2017-12-10T03:11:17.520Z,92.09
2017-12-10T03:11:43.633Z,91.71
2017-12-10T03:12:09.748Z,91.33
2017-12-10T03:12:35.862Z,91.43
2017-12-10T03:13:01.973Z,91.43
2017-12-10T03:13:28.139Z,91.62
2017-12-10T03:13:54.250Z,91.81
2017-12-10T03:14:20.367Z,91.43
2017-12-10T03:14:46.482Z,91.33
2017-12-10T03:15:12.806Z,91.43
2017-12-10T03:15:38.957Z,91.43
2017-12-10T03:16:05.063Z,92.09
2017-12-10T03:16:31.184Z,91.81
2017-12-10T03:16:57.300Z,91.71
2017-12-10T03:17:23.430Z,92.66
2017-12-10T03:17:49.571Z,91.9
2017-12-10T03:18:15.683Z,91.43
2017-12-10T03:18:41.824Z,90.86
2017-12-10T03:19:07.929Z,91.24
2017-12-10T03:19:34.051Z,91.14
2017-12-10T03:20:00.186Z,91.05
2017-12-10T03:20:26.302Z,91.24
2017-12-10T03:20:52.421Z,91.43
2017-12-10T03:21:19.254Z,91.81
2017-12-10T03:21:45.313Z,91.24
2017-12-10T03:22:11.432Z,91.05
2017-12-10T03:22:37.562Z,91.24
2017-12-10T03:23:03.681Z,90.95
2017-12-10T03:23:29.807Z,90.77
2017-12-10T03:23:55.976Z,91.05
2017-12-10T03:24:22.092Z,90.67
2017-12-10T03:24:48.209Z,90.86
2017-12-10T03:25:14.392Z,90.86
2017-12-10T03:25:40.448Z,90.86
2017-12-10T03:26:06.560Z,91.05
2017-12-10T03:26:32.679Z,91.62
2017-12-10T03:26:58.786Z,91.24
2017-12-10T03:27:24.922Z,91.24
2017-12-10T03:27:51.042Z,91.43
2017-12-10T03:28:17.157Z,91.43
2017-12-10T03:28:43.266Z,91.43
2017-12-10T03:29:09.384Z,91.43
2017-12-10T03:29:35.500Z,91.43
2017-12-10T03:30:01.615Z,91.33
2017-12-10T03:30:27.734Z,91.71
2017-12-10T03:30:53.861Z,91.62
2017-12-10T03:31:19.976Z,91.43
2017-12-10T03:31:46.091Z,91.81
2017-12-10T03:32:12.197Z,92
2017-12-10T03:32:38.334Z,92.47
2017-12-10T03:33:04.449Z,92.76
2017-12-10T03:33:30.556Z,92.47
2017-12-10T03:33:56.675Z,92.66
2017-12-10T03:34:22.783Z,92.09
2017-12-10T03:34:48.900Z,92
2017-12-10T03:35:15.063Z,91.33
2017-12-10T03:35:41.123Z,91.14
2017-12-10T03:36:07.239Z,91.43
2017-12-10T03:36:33.352Z,91.52
2017-12-10T03:36:59.471Z,90.95
2017-12-10T03:37:25.586Z,91.33
2017-12-10T03:37:51.706Z,91.24
2017-12-10T03:38:17.844Z,91.24
2017-12-10T03:38:43.944Z,91.24
2017-12-10T03:39:10.060Z,91.43
2017-12-10T03:39:36.168Z,91.43
2017-12-10T03:40:02.290Z,91.52
2017-12-10T03:40:28.419Z,91.33
2017-12-10T03:40:54.533Z,91.71
2017-12-10T03:41:20.647Z,91.9
2017-12-10T03:41:46.768Z,91.52
2017-12-10T03:42:12.877Z,91.52
2017-12-10T03:42:38.999Z,92.09
2017-12-10T03:43:05.117Z,91.71
2017-12-10T03:43:31.232Z,91.24
2017-12-10T03:43:57.340Z,91.43
2017-12-10T03:44:23.450Z,91.05
2017-12-10T03:44:49.567Z,92
2017-12-10T03:45:15.675Z,92.09
2017-12-10T03:45:41.795Z,92.09
2017-12-10T03:46:07.909Z,91.81
2017-12-10T03:46:34.019Z,91.9
2017-12-10T03:47:00.136Z,92
2017-12-10T03:47:26.263Z,92.19
2017-12-10T03:47:52.381Z,91.81
2017-12-10T03:48:18.510Z,92.09
2017-12-10T03:48:44.629Z,91.71
2017-12-10T03:49:10.739Z,91.62
2017-12-10T03:49:36.857Z,91.9
2017-12-10T03:50:02.969Z,91.81
2017-12-10T03:50:29.084Z,92.38
2017-12-10T03:50:55.194Z,92
2017-12-10T03:51:21.359Z,91.81
2017-12-10T03:51:47.425Z,91.62
2017-12-10T03:52:13.535Z,91.81
2017-12-10T03:52:39.651Z,91.86
2017-12-10T03:53:05.764Z,92.19
2017-12-10T03:53:31.887Z,92.28
2017-12-10T03:53:57.999Z,92.66
2017-12-10T03:54:24.111Z,92.66
2017-12-10T03:54:50.228Z,92.57
2017-12-10T03:55:16.341Z,92.47
2017-12-10T03:55:42.456Z,92.47
2017-12-10T03:56:08.569Z,92.76
2017-12-10T03:56:34.678Z,92.38
2017-12-10T03:57:00.798Z,92.47
2017-12-10T03:57:26.913Z,92.28
2017-12-10T03:57:53.043Z,92.38
2017-12-10T03:58:19.152Z,91.9
2017-12-10T03:58:45.270Z,92
2017-12-10T03:59:11.379Z,91.9
2017-12-10T03:59:37.500Z,91.9
2017-12-10T04:00:03.608Z,92
2017-12-10T04:00:29.725Z,91.81
2017-12-10T04:00:55.841Z,92.47
2017-12-10T04:01:21.949Z,92.28
2017-12-10T04:01:48.062Z,92.19
2017-12-10T04:02:14.180Z,92.57
2017-12-10T04:02:40.322Z,92.47
2017-12-10T04:03:06.433Z,92.38
2017-12-10T04:03:32.546Z,92.76
2017-12-10T04:03:58.657Z,92.47
2017-12-10T04:04:24.776Z,92.38
2017-12-10T04:04:50.885Z,92.47
2017-12-10T04:05:17.006Z,92.85
2017-12-10T04:05:43.116Z,92.47
2017-12-10T04:06:09.230Z,92.47
2017-12-10T04:06:35.349Z,92.66
2017-12-10T04:07:01.463Z,93.13
2017-12-10T04:07:27.571Z,92.38
2017-12-10T04:07:53.710Z,92.76
2017-12-10T04:08:19.847Z,92.57
2017-12-10T04:08:45.958Z,92.57
2017-12-10T04:09:12.077Z,92.38
2017-12-10T04:09:38.190Z,92.85
2017-12-10T04:10:04.305Z,92.57
2017-12-10T04:10:30.417Z,92.57
2017-12-10T04:10:56.537Z,92.57
2017-12-10T04:11:22.648Z,92.57
2017-12-10T04:11:48.767Z,92.38
2017-12-10T04:12:14.878Z,92.85
2017-12-10T04:12:40.994Z,92.47
2017-12-10T04:13:07.112Z,92.85
2017-12-10T04:13:33.220Z,92.09
2017-12-10T04:13:59.333Z,92.38
2017-12-10T04:14:25.452Z,92.57
2017-12-10T04:14:51.568Z,92.76
2017-12-10T04:15:17.680Z,93.27
2017-12-10T04:15:43.792Z,93.32
2017-12-10T04:16:09.908Z,93.13
2017-12-10T04:16:36.020Z,93.61
2017-12-10T04:17:02.140Z,93.56
2017-12-10T04:17:28.247Z,93.8
2017-12-10T04:17:54.362Z,93.99
2017-12-10T04:18:20.482Z,93.89
2017-12-10T04:18:46.611Z,93.61
2017-12-10T04:19:12.723Z,94.18
2017-12-10T04:19:38.842Z,93.89
2017-12-10T04:20:04.959Z,93.99
2017-12-10T04:20:31.070Z,93.8
2017-12-10T04:20:57.180Z,93.89
2017-12-10T04:21:23.293Z,93.61
2017-12-10T04:21:49.414Z,93.61
2017-12-10T04:22:15.544Z,93.65
2017-12-10T04:22:41.660Z,93.7
2017-12-10T04:23:07.778Z,93.8
2017-12-10T04:23:33.897Z,93.8
2017-12-10T04:24:00.012Z,94.32
2017-12-10T04:24:26.132Z,94.18
2017-12-10T04:24:52.253Z,94.74
2017-12-10T04:25:18.362Z,94.46
2017-12-10T04:25:44.481Z,94.74
2017-12-10T04:26:10.588Z,94.79
2017-12-10T04:26:36.699Z,95.64
2017-12-10T04:27:02.817Z,95.31
2017-12-10T04:27:28.930Z,95.83
2017-12-10T04:27:55.049Z,95.45
2017-12-10T04:28:21.167Z,95.93
2017-12-10T04:28:47.281Z,95.55
2017-12-10T04:29:13.399Z,96.21
2017-12-10T04:29:39.505Z,96.78
2017-12-10T04:30:05.622Z,96.78
2017-12-10T04:30:31.735Z,96.69
2017-12-10T04:30:57.851Z,97.35
2017-12-10T04:31:23.975Z,97.63
2017-12-10T04:31:50.090Z,98.2
2017-12-10T04:32:16.208Z,98.77
2017-12-10T04:32:42.339Z,99.24
2017-12-10T04:33:08.457Z,99.15
2017-12-10T04:33:34.585Z,99.52
2017-12-10T04:34:00.691Z,99.71
2017-12-10T04:34:26.802Z,99.99
2017-12-10T04:34:52.914Z,99.81
2017-12-10T04:35:19.033Z,99.9
2017-12-10T04:35:45.143Z,99.71
2017-12-10T04:36:11.261Z,99.62
2017-12-10T04:36:37.392Z,99.71
2017-12-10T04:37:03.509Z,99.99
2017-12-10T04:37:29.620Z,99.99
2017-12-10T04:37:55.736Z,99.99
2017-12-10T04:38:21.853Z,99.99
2017-12-10T04:38:47.962Z,99.99
2017-12-10T04:39:14.078Z,99.99
2017-12-10T04:39:40.188Z,99.99
2017-12-10T04:40:06.305Z,99.99
2017-12-10T04:40:32.416Z,99.99
2017-12-10T04:40:58.532Z,99.99
2017-12-10T04:41:24.643Z,99.99
2017-12-10T04:41:50.775Z,99.99
2017-12-10T04:42:16.914Z,99.99
2017-12-10T04:42:43.022Z,99.99
2017-12-10T04:43:09.142Z,99.99
2017-12-10T04:43:35.255Z,99.99
2017-12-10T04:44:01.405Z,99.99
2017-12-10T04:44:27.522Z,99.99
2017-12-10T04:44:53.632Z,99.99
2017-12-10T04:45:19.747Z,99.99
2017-12-10T04:45:45.863Z,99.99
2017-12-10T04:46:11.979Z,99.99
2017-12-10T04:46:38.089Z,99.99
2017-12-10T04:47:04.223Z,99.99
2017-12-10T04:47:30.356Z,99.99
2017-12-10T04:47:56.478Z,99.99
2017-12-10T04:48:22.587Z,99.99
2017-12-10T04:48:48.726Z,99.99
2017-12-10T04:49:14.839Z,99.99
2017-12-10T04:49:40.947Z,99.99
2017-12-10T04:50:07.082Z,99.99
2017-12-10T04:50:33.194Z,99.99
2017-12-10T04:50:59.315Z,99.99
2017-12-10T04:51:25.419Z,99.99
2017-12-10T04:51:51.534Z,99.99
2017-12-10T04:52:17.643Z,99.99
2017-12-10T04:52:43.761Z,99.99
2017-12-10T04:53:09.871Z,99.99
2017-12-10T04:53:35.996Z,99.99
2017-12-10T04:54:02.108Z,99.99
2017-12-10T04:54:28.216Z,99.99
2017-12-10T04:54:54.328Z,99.99
2017-12-10T04:55:20.445Z,99.99
2017-12-10T04:55:46.562Z,99.99
2017-12-10T04:56:12.672Z,99.99
2017-12-10T04:56:38.792Z,99.99
2017-12-10T04:57:04.956Z,99.99
2017-12-10T04:57:31.071Z,99.99
2017-12-10T04:57:57.194Z,99.99
2017-12-10T04:58:23.306Z,99.99
2017-12-10T04:58:49.444Z,99.99
2017-12-10T04:59:15.560Z,99.99
2017-12-10T04:59:41.665Z,99.99
2017-12-10T05:00:07.797Z,99.99
2017-12-10T05:00:33.914Z,99.99
2017-12-10T05:01:00.031Z,99.99
2017-12-10T05:01:26.144Z,99.99
2017-12-10T05:01:52.279Z,99.99
2017-12-10T05:02:18.387Z,99.99
2017-12-10T05:02:44.496Z,99.99
2017-12-10T05:03:10.630Z,99.99
2017-12-10T05:03:36.733Z,99.99
2017-12-10T05:04:02.853Z,99.99
2017-12-10T05:04:28.969Z,99.99
2017-12-10T05:04:55.079Z,99.99
2017-12-10T05:05:21.191Z,99.99
2017-12-10T05:05:47.307Z,99.99
2017-12-10T05:06:13.442Z,99.99
2017-12-10T05:06:39.554Z,99.99
2017-12-10T05:07:05.671Z,99.99
2017-12-10T05:07:31.780Z,99.99
2017-12-10T05:07:57.899Z,99.99
2017-12-10T05:08:24.012Z,99.99
2017-12-10T05:08:50.129Z,99.99
2017-12-10T05:09:16.257Z,99.99
2017-12-10T05:09:42.374Z,99.99
2017-12-10T05:10:08.512Z,99.99
2017-12-10T05:10:34.641Z,99.99
2017-12-10T05:11:00.759Z,99.99
2017-12-10T05:11:26.891Z,99.99
2017-12-10T05:11:53.007Z,99.99
2017-12-10T05:12:19.124Z,99.99
2017-12-10T05:12:45.236Z,99.99
2017-12-10T05:13:11.354Z,99.99
2017-12-10T05:13:37.465Z,99.99
2017-12-10T05:14:03.597Z,99.99
2017-12-10T05:14:29.715Z,99.99
2017-12-10T05:14:55.826Z,99.99
2017-12-10T05:15:21.942Z,99.99
2017-12-10T05:15:48.060Z,99.99
2017-12-10T05:16:14.173Z,99.99
2017-12-10T05:16:40.298Z,99.99
2017-12-10T05:17:06.417Z,99.99
2017-12-10T05:17:32.527Z,99.99
2017-12-10T05:17:58.644Z,99.99
2017-12-10T05:18:24.759Z,99.99
2017-12-10T05:18:50.869Z,99.99
2017-12-10T05:19:16.976Z,99.99
2017-12-10T05:19:43.117Z,99.99
2017-12-10T05:20:09.228Z,99.99
2017-12-10T05:20:35.351Z,99.99
2017-12-10T05:21:01.489Z,99.99
2017-12-10T05:21:27.598Z,99.99
2017-12-10T05:21:53.713Z,99.99
2017-12-10T05:22:19.848Z,99.99
2017-12-10T05:22:45.956Z,99.99
2017-12-10T05:23:12.074Z,99.99
2017-12-10T05:23:38.186Z,99.99
2017-12-10T05:24:04.302Z,99.99
2017-12-10T05:24:30.449Z,99.99
2017-12-10T05:24:56.546Z,99.99
2017-12-10T05:25:22.660Z,99.99
2017-12-10T05:25:48.770Z,99.99
2017-12-10T05:26:14.893Z,99.99
2017-12-10T05:26:41.005Z,99.99
2017-12-10T05:27:07.119Z,99.99
2017-12-10T05:27:33.229Z,99.99
2017-12-10T05:27:59.341Z,99.99
2017-12-10T05:28:25.459Z,99.99
2017-12-10T05:28:51.568Z,99.99
2017-12-10T05:29:17.687Z,99.99
2017-12-10T05:29:43.803Z,99.99
2017-12-10T05:30:09.918Z,99.99
2017-12-10T05:30:36.024Z,99.99
2017-12-10T05:31:02.142Z,99.99
2017-12-10T05:31:28.258Z,99.99
2017-12-10T05:31:54.366Z,99.99
2017-12-10T05:32:20.483Z,99.99
2017-12-10T05:32:46.618Z,99.99
2017-12-10T05:33:12.730Z,99.99
2017-12-10T05:33:38.846Z,99.99
2017-12-10T05:34:04.957Z,99.99
2017-12-10T05:34:31.092Z,99.99
2017-12-10T05:34:57.203Z,99.99
2017-12-10T05:35:23.324Z,99.99
2017-12-10T05:35:49.453Z,99.99
2017-12-10T05:36:15.570Z,99.99
2017-12-10T05:36:41.687Z,99.99
2017-12-10T05:37:07.799Z,99.99
2017-12-10T05:37:33.912Z,99.99